createdAt,value
2019-01-24T00:01:03.898Z,19.33
2019-01-24T00:03:53.281Z,13.27
2019-01-24T00:06:42.686Z,18.17
2019-01-24T00:09:32.524Z,24.87
2019-01-24T00:12:21.934Z,29.43
2019-01-24T00:15:11.663Z,27.23
2019-01-24T00:18:01.027Z,18.90
2019-01-24T00:20:51.081Z,25.60
2019-01-24T00:23:41.801Z,34.00
2019-01-24T00:26:31.587Z,14.23
2019-01-24T00:29:21.324Z,8.23
2019-01-24T00:32:11.090Z,1.50
2019-01-24T00:35:00.464Z,1.73
2019-01-24T00:37:49.836Z,8.67
2019-01-24T00:40:39.312Z,16.13
2019-01-24T00:43:29.309Z,18.13
2019-01-24T00:46:19.455Z,18.80
2019-01-24T00:49:09.611Z,21.17
2019-01-24T00:51:59.438Z,13.87
2019-01-24T00:54:49.237Z,5.40
2019-01-24T00:57:38.987Z,2.73
2019-01-24T01:00:29.466Z,3.13
2019-01-24T01:03:18.868Z,8.50
2019-01-24T01:06:08.264Z,6.43
2019-01-24T01:08:57.774Z,28.23
2019-01-24T01:11:47.227Z,35.63
2019-01-24T01:14:36.624Z,48.97
2019-01-24T01:17:26.686Z,21.13
2019-01-24T01:20:18.942Z,18.67
2019-01-24T01:23:08.622Z,26.27
2019-01-24T01:25:58.490Z,24.93
2019-01-24T01:28:48.375Z,21.20
2019-01-24T01:31:37.380Z,14.77
2019-01-24T01:34:26.837Z,8.57
2019-01-24T01:37:16.664Z,3.43
2019-01-24T01:40:07.708Z,2.10
2019-01-24T01:42:58.069Z,4.60
2019-01-24T01:45:48.134Z,6.40
2019-01-24T01:48:38.259Z,9.13
2019-01-24T01:51:27.887Z,7.17
2019-01-24T01:54:17.337Z,7.17
2019-01-24T01:57:06.401Z,24.10
2019-01-24T01:59:55.787Z,15.80
2019-01-24T02:02:45.301Z,5.57
2019-01-24T02:05:35.140Z,4.97
2019-01-24T02:08:25.576Z,2.37
2019-01-24T02:11:14.906Z,3.43
2019-01-24T02:14:04.276Z,3.97
2019-01-24T02:16:53.516Z,3.87
2019-01-24T02:19:42.941Z,8.27
2019-01-24T02:22:32.470Z,8.47
2019-01-24T02:25:21.926Z,20.13
2019-01-24T02:28:12.176Z,14.10
2019-01-24T02:31:01.789Z,15.93
2019-01-24T02:33:50.648Z,7.53
2019-01-24T02:36:40.662Z,6.73
2019-01-24T02:39:30.109Z,5.93
2019-01-24T02:42:19.769Z,4.93
2019-01-24T02:45:11.393Z,4.57
2019-01-24T02:48:01.436Z,4.63
2019-01-24T02:50:51.506Z,2.90
2019-01-24T02:53:40.680Z,4.67
2019-01-24T02:56:29.829Z,14.20
2019-01-24T02:59:19.572Z,13.13
2019-01-24T03:02:09.456Z,6.67
2019-01-24T03:04:59.223Z,2.80
2019-01-24T03:07:49.556Z,3.60
2019-01-24T03:10:39.341Z,4.67
2019-01-24T03:13:28.962Z,6.83
2019-01-24T03:16:18.471Z,7.63
2019-01-24T03:19:08.333Z,20.00
2019-01-24T03:21:57.597Z,23.77
2019-01-24T03:24:47.074Z,29.23
2019-01-24T03:27:35.873Z,23.63
2019-01-24T03:30:25.913Z,34.83
2019-01-24T03:33:15.952Z,27.87
2019-01-24T03:36:06.266Z,21.43
2019-01-24T03:38:56.553Z,21.93
2019-01-24T03:41:45.713Z,18.83
2019-01-24T03:44:35.072Z,12.10
2019-01-24T03:47:24.915Z,10.30
2019-01-24T03:50:16.644Z,7.63
2019-01-24T03:53:06.225Z,6.53
2019-01-24T03:55:55.435Z,295.53
2019-01-24T03:58:51.670Z,452.73
2019-01-24T04:01:41.634Z,130.03
2019-01-24T04:04:31.436Z,66.27
2019-01-24T04:07:20.924Z,15.17
2019-01-24T04:10:12.965Z,8.53
2019-01-24T04:13:02.156Z,27.17
2019-01-24T04:15:51.397Z,20.47
2019-01-24T04:18:40.887Z,125.23
2019-01-24T04:21:30.787Z,36.13
2019-01-24T04:24:19.884Z,26.50
2019-01-24T04:27:09.314Z,21.60
2019-01-24T04:29:59.053Z,19.23
2019-01-24T04:32:48.496Z,20.07
2019-01-24T04:35:38.272Z,32.47
2019-01-24T04:38:34.209Z,27.63
2019-01-24T04:41:23.721Z,29.30
2019-01-24T04:44:13.046Z,32.00
2019-01-24T04:47:02.446Z,40.70
2019-01-24T04:49:51.862Z,38.40
2019-01-24T04:52:41.921Z,36.73
2019-01-24T04:55:30.872Z,35.13
2019-01-24T04:58:20.375Z,40.13
2019-01-24T05:01:09.788Z,41.07
2019-01-24T05:03:59.424Z,152.43
2019-01-24T05:06:48.345Z,98.17
2019-01-24T05:09:38.101Z,150.67
2019-01-24T05:12:27.536Z,125.50
2019-01-24T05:15:20.817Z,89.90
2019-01-24T05:18:10.037Z,70.73
2019-01-24T05:20:59.113Z,92.13
2019-01-24T05:23:49.147Z,75.97
2019-01-24T05:26:38.536Z,72.53
2019-01-24T05:29:28.171Z,71.40
2019-01-24T05:32:18.597Z,145.30
2019-01-24T05:35:09.148Z,107.10
2019-01-24T05:37:58.907Z,130.20
2019-01-24T05:40:48.340Z,115.83
2019-01-24T05:43:40.447Z,105.23
2019-01-24T05:46:30.420Z,98.97
2019-01-24T05:49:19.593Z,82.63
2019-01-24T05:52:09.106Z,98.37
2019-01-24T05:54:58.857Z,95.03
2019-01-24T05:57:48.656Z,81.23
2019-01-24T06:04:14.615Z,46.57
2019-01-24T06:07:04.105Z,61.43
2019-01-24T06:09:52.862Z,62.03
2019-01-24T06:12:42.706Z,96.67
2019-01-24T06:15:32.399Z,103.80
2019-01-24T06:18:22.082Z,163.40
2019-01-24T06:21:11.588Z,142.93
2019-01-24T06:24:01.093Z,109.80
2019-01-24T06:26:49.975Z,87.57
2019-01-24T06:29:39.548Z,199.47
2019-01-24T06:32:29.997Z,138.93
2019-01-24T06:35:19.650Z,265.37
2019-01-24T06:38:10.033Z,678.00
2019-01-24T06:41:00.036Z,372.23
2019-01-24T06:43:50.028Z,320.33
2019-01-24T06:46:40.526Z,326.53
2019-01-24T06:49:30.065Z,317.60
2019-01-24T06:52:20.292Z,422.73
2019-01-24T06:55:13.145Z,389.30
2019-01-24T06:58:02.504Z,371.03
2019-01-24T07:00:52.591Z,315.60
2019-01-24T07:03:41.395Z,376.23
2019-01-24T07:06:31.206Z,300.67
2019-01-24T07:09:20.937Z,283.97
2019-01-24T07:12:10.222Z,277.93
2019-01-24T07:14:59.427Z,301.67
2019-01-24T07:17:49.075Z,289.40
2019-01-24T07:20:42.213Z,294.90
2019-01-24T07:23:31.669Z,287.00
2019-01-24T07:26:21.183Z,278.47
2019-01-24T07:29:10.564Z,275.00
2019-01-24T07:32:00.115Z,222.20
2019-01-24T07:34:49.863Z,240.07
2019-01-24T07:37:39.555Z,203.93
2019-01-24T07:40:29.184Z,177.20
2019-01-24T07:43:19.441Z,93.33
2019-01-24T07:46:09.569Z,119.13
2019-01-24T07:48:59.523Z,181.30
2019-01-24T07:51:49.379Z,168.97
2019-01-24T07:54:38.480Z,178.43
2019-01-24T07:57:27.380Z,221.80
2019-01-24T08:00:20.100Z,196.50
2019-01-24T08:03:09.517Z,107.73
2019-01-24T08:05:58.944Z,109.57
2019-01-24T08:08:48.679Z,183.83
2019-01-24T08:11:38.658Z,143.50
2019-01-24T08:14:28.203Z,134.27
2019-01-24T08:17:17.753Z,137.20
2019-01-24T08:20:10.354Z,159.43
2019-01-24T08:23:00.062Z,154.00
2019-01-24T08:25:49.454Z,258.77
2019-01-24T08:28:39.151Z,219.83
2019-01-24T08:31:29.302Z,220.60
2019-01-24T08:34:18.997Z,249.17
2019-01-24T08:37:08.882Z,259.93
2019-01-24T08:39:58.170Z,264.67
2019-01-24T08:42:48.215Z,269.73
2019-01-24T08:45:38.059Z,274.50
2019-01-24T08:48:30.403Z,259.43
2019-01-24T08:51:20.309Z,215.07
2019-01-24T08:54:10.373Z,217.30
2019-01-24T08:57:00.096Z,202.03
2019-01-24T08:59:49.638Z,209.93
2019-01-24T09:02:39.235Z,159.70
2019-01-24T09:05:29.039Z,214.93
2019-01-24T09:08:19.068Z,198.00
2019-01-24T09:11:08.891Z,120.60
2019-01-24T09:13:58.627Z,69.10
2019-01-24T09:16:48.251Z,63.93
2019-01-24T09:19:38.337Z,48.80
2019-01-24T09:22:28.175Z,40.50
2019-01-24T09:25:17.236Z,49.10
2019-01-24T09:28:06.634Z,80.77
2019-01-24T09:30:56.756Z,87.37
2019-01-24T09:33:46.513Z,118.43
2019-01-24T09:36:36.065Z,137.27
2019-01-24T09:39:25.765Z,120.67
2019-01-24T09:42:15.631Z,76.23
2019-01-24T09:45:05.867Z,73.30
2019-01-24T09:47:57.612Z,73.60
2019-01-24T09:50:46.506Z,35.90
2019-01-24T09:53:35.998Z,50.37
2019-01-24T09:56:25.216Z,67.87
2019-01-24T09:59:14.739Z,57.07
2019-01-24T10:02:04.537Z,49.70
2019-01-24T10:04:54.323Z,38.97
2019-01-24T10:07:43.671Z,39.70
2019-01-24T10:10:33.645Z,37.33
2019-01-24T10:13:22.578Z,61.50
2019-01-24T10:16:12.888Z,83.37
2019-01-24T10:19:01.843Z,81.63
2019-01-24T10:21:50.664Z,91.30
2019-01-24T10:24:40.211Z,125.13
2019-01-24T10:27:29.447Z,94.67
2019-01-24T10:30:22.242Z,98.37
2019-01-24T10:33:12.216Z,110.80
2019-01-24T10:36:03.009Z,80.63
2019-01-24T10:38:52.632Z,53.57
2019-01-24T10:41:42.348Z,90.00
2019-01-24T10:44:32.630Z,76.47
2019-01-24T10:47:22.153Z,73.37
2019-01-24T10:50:12.986Z,90.23
2019-01-24T10:53:02.824Z,86.50
2019-01-24T10:55:52.228Z,107.40
2019-01-24T10:58:41.478Z,113.13
2019-01-24T11:01:30.929Z,72.13
2019-01-24T11:04:20.615Z,87.97
2019-01-24T11:07:09.731Z,125.43
2019-01-24T11:10:00.163Z,112.37
2019-01-24T11:12:49.770Z,127.67
2019-01-24T11:15:39.193Z,198.23
2019-01-24T11:18:29.062Z,198.37
2019-01-24T11:21:18.517Z,134.93
2019-01-24T11:24:08.306Z,83.00
2019-01-24T11:26:58.147Z,65.13
2019-01-24T11:29:47.265Z,67.47
2019-01-24T11:32:37.419Z,90.77
2019-01-24T11:35:29.970Z,118.13
2019-01-24T11:38:19.739Z,125.40
2019-01-24T11:41:09.823Z,140.47
2019-01-24T11:43:59.418Z,99.03
2019-01-24T11:46:48.931Z,87.80
2019-01-24T11:49:38.279Z,77.87
2019-01-24T11:52:28.174Z,46.00
2019-01-24T11:55:19.111Z,27.47
2019-01-24T11:58:09.117Z,34.63
2019-01-24T12:00:59.166Z,55.17
2019-01-24T12:03:48.493Z,65.77
2019-01-24T12:06:37.931Z,95.27
2019-01-24T12:09:27.123Z,67.13
2019-01-24T12:12:16.407Z,70.30
2019-01-24T12:15:08.909Z,70.00
2019-01-24T12:17:57.917Z,81.37
2019-01-24T12:20:47.811Z,229.07
2019-01-24T12:23:37.991Z,121.10
2019-01-24T12:26:28.043Z,128.57
2019-01-24T12:29:17.433Z,108.27
2019-01-24T12:32:07.241Z,56.63
2019-01-24T12:34:56.759Z,101.33
2019-01-24T12:37:46.334Z,174.93
2019-01-24T12:40:36.420Z,53.47
2019-01-24T12:43:25.995Z,90.73
2019-01-24T12:46:15.427Z,65.90
2019-01-24T12:49:04.762Z,40.00
2019-01-24T12:51:54.840Z,85.53
2019-01-24T12:54:45.266Z,79.93
2019-01-24T12:57:34.999Z,159.93
2019-01-24T13:00:33.181Z,125.27
2019-01-24T13:03:23.096Z,111.37
2019-01-24T13:06:12.254Z,131.33
2019-01-24T13:09:05.119Z,112.67
2019-01-24T13:11:54.622Z,78.97
2019-01-24T13:14:43.995Z,72.27
2019-01-24T13:17:33.473Z,70.70
2019-01-24T13:20:23.005Z,94.23
2019-01-24T13:23:11.823Z,122.63
2019-01-24T13:26:00.578Z,107.97
2019-01-24T13:28:50.017Z,125.53
2019-01-24T13:31:39.493Z,128.17
2019-01-24T13:34:29.027Z,104.27
2019-01-24T13:39:54.238Z,104.25
2019-01-24T13:42:43.922Z,92.63
2019-01-24T13:45:36.477Z,91.47
2019-01-24T13:48:26.549Z,126.87
2019-01-24T13:51:15.477Z,103.17
2019-01-24T13:54:04.970Z,114.07
2019-01-24T13:56:54.993Z,181.87
2019-01-24T13:59:45.427Z,170.40
2019-01-24T14:02:34.934Z,133.63
2019-01-24T14:05:24.573Z,203.30
2019-01-24T14:08:13.737Z,154.63
2019-01-24T14:11:03.260Z,142.30
2019-01-24T14:13:52.219Z,143.50
2019-01-24T14:16:41.679Z,107.83
2019-01-24T14:19:30.668Z,116.00
2019-01-24T14:22:20.404Z,154.23
2019-01-24T14:25:13.417Z,194.00
2019-01-24T14:28:03.256Z,210.53
2019-01-24T14:30:52.819Z,252.40
2019-01-24T14:33:42.677Z,294.63
2019-01-24T14:36:32.497Z,368.63
2019-01-24T14:39:22.473Z,416.73
2019-01-24T14:42:11.938Z,335.87
2019-01-24T14:45:02.080Z,256.03
2019-01-24T14:47:52.445Z,278.07
2019-01-24T14:50:42.278Z,244.53
2019-01-24T14:53:32.221Z,281.53
2019-01-24T14:56:21.536Z,146.97
2019-01-24T14:59:11.142Z,201.97
2019-01-24T15:02:00.437Z,163.77
2019-01-24T15:04:49.984Z,206.77
2019-01-24T15:08:32.610Z,88.20
2019-01-24T15:11:23.966Z,80.50
2019-01-24T15:14:13.431Z,91.53
2019-01-24T15:17:02.957Z,263.33
2019-01-24T15:19:53.383Z,240.63
2019-01-24T15:22:43.260Z,296.43
2019-01-24T15:25:33.125Z,162.73
2019-01-24T15:28:23.107Z,153.90
2019-01-24T15:31:12.497Z,155.57
2019-01-24T15:34:01.545Z,221.30
2019-01-24T15:36:50.465Z,286.03
2019-01-24T15:39:40.446Z,243.23
2019-01-24T15:42:31.251Z,206.30
2019-01-24T15:45:20.987Z,238.77
2019-01-24T15:48:11.786Z,190.53
2019-01-24T15:51:01.525Z,151.40
2019-01-24T15:53:51.222Z,224.77
2019-01-24T15:56:41.064Z,256.70
2019-01-24T15:59:31.807Z,148.47
2019-01-24T16:02:20.748Z,262.57
2019-01-24T16:05:11.218Z,95.40
2019-01-24T16:08:01.949Z,148.60
2019-01-24T16:10:51.705Z,163.13
2019-01-24T16:13:41.359Z,184.73
2019-01-24T16:16:31.160Z,175.83
2019-01-24T16:19:23.413Z,183.63
2019-01-24T16:22:13.444Z,260.57
2019-01-24T16:25:08.142Z,299.13
2019-01-24T16:27:57.073Z,356.10
2019-01-24T16:30:49.322Z,246.47
2019-01-24T16:33:39.356Z,243.73
2019-01-24T16:36:28.911Z,197.37
2019-01-24T16:39:22.815Z,211.60
2019-01-24T16:42:13.188Z,259.90
2019-01-24T16:45:02.392Z,212.20
2019-01-24T16:47:52.073Z,284.17
2019-01-24T16:50:42.589Z,234.40
2019-01-24T16:53:32.079Z,170.10
2019-01-24T16:56:22.333Z,156.90
2019-01-24T16:59:11.642Z,149.00
2019-01-24T17:02:00.805Z,181.43
2019-01-24T17:04:50.265Z,201.10
2019-01-24T17:07:41.768Z,212.17
2019-01-24T17:10:31.614Z,308.63
2019-01-24T17:13:21.431Z,411.93
2019-01-24T17:16:11.525Z,343.47
2019-01-24T17:19:01.275Z,537.77
2019-01-24T17:21:52.568Z,372.40
2019-01-24T17:24:41.640Z,309.87
2019-01-24T17:27:32.044Z,273.37
2019-01-24T17:30:24.371Z,240.20
2019-01-24T17:33:13.618Z,223.70
2019-01-24T17:36:03.075Z,209.80
2019-01-24T17:38:53.302Z,190.83
2019-01-24T17:41:43.143Z,173.20
2019-01-24T17:44:33.246Z,169.27
2019-01-24T17:47:22.622Z,202.27
2019-01-24T17:50:13.422Z,131.90
2019-01-24T17:53:04.023Z,353.27
2019-01-24T17:55:53.533Z,235.00
2019-01-24T17:58:43.269Z,208.23
2019-01-24T18:01:33.365Z,128.03
2019-01-24T18:04:23.119Z,275.10
2019-01-24T18:07:12.720Z,228.20
2019-01-24T18:10:02.348Z,192.57
2019-01-24T18:12:51.648Z,209.47
2019-01-24T18:15:41.586Z,220.33
2019-01-24T18:18:30.634Z,173.23
2019-01-24T18:21:21.987Z,170.13
2019-01-24T18:24:13.466Z,177.33
2019-01-24T18:27:03.460Z,219.33
2019-01-24T18:29:52.977Z,296.47
2019-01-24T18:32:43.357Z,207.33
2019-01-24T18:35:32.946Z,206.73
2019-01-24T18:38:22.413Z,135.00
2019-01-24T18:41:14.475Z,108.73
2019-01-24T18:44:04.300Z,70.83
2019-01-24T18:46:56.129Z,59.53
2019-01-24T18:49:53.832Z,173.17
2019-01-24T18:52:47.731Z,140.60
2019-01-24T18:55:48.636Z,219.63
2019-01-24T18:58:40.330Z,206.30
2019-01-24T19:01:39.292Z,250.07
2019-01-24T19:04:33.896Z,132.90
2019-01-24T19:07:25.041Z,132.27
2019-01-24T19:10:21.656Z,107.80
2019-01-24T19:13:12.049Z,75.03
2019-01-24T19:16:05.686Z,66.43
2019-01-24T19:18:55.885Z,147.97
2019-01-24T19:21:45.747Z,226.10
2019-01-24T19:24:35.431Z,244.43
2019-01-24T19:27:24.922Z,178.83
2019-01-24T19:30:20.644Z,153.63
2019-01-24T19:33:11.164Z,208.03
2019-01-24T19:36:01.414Z,178.67
2019-01-24T19:38:53.256Z,328.27
2019-01-24T19:41:42.003Z,469.67
2019-01-24T19:44:31.890Z,289.87
2019-01-24T19:47:23.615Z,132.03
2019-01-24T19:50:15.434Z,132.23
2019-01-24T19:53:05.936Z,90.37
2019-01-24T19:55:55.796Z,117.00
2019-01-24T19:58:45.543Z,115.40
2019-01-24T20:01:35.309Z,114.13
2019-01-24T20:04:26.413Z,109.17
2019-01-24T20:07:16.115Z,121.57
2019-01-24T20:10:08.421Z,124.10
2019-01-24T20:12:59.073Z,121.80
2019-01-24T20:15:48.610Z,168.80
2019-01-24T20:18:38.765Z,304.10
2019-01-24T20:21:28.393Z,262.27
2019-01-24T20:24:18.844Z,243.97
2019-01-24T20:27:09.102Z,189.87
2019-01-24T20:29:59.594Z,257.17
2019-01-24T20:32:48.964Z,193.47
2019-01-24T20:36:05.555Z,169.87
2019-01-24T20:38:55.607Z,162.50
2019-01-24T20:41:47.799Z,130.90
2019-01-24T20:44:37.736Z,183.90
2019-01-24T20:47:27.507Z,192.20
2019-01-24T20:50:17.488Z,199.47
2019-01-24T20:53:09.956Z,169.63
2019-01-24T20:56:02.067Z,159.10
2019-01-24T20:58:51.892Z,105.50
2019-01-24T21:01:49.197Z,103.80
2019-01-24T21:04:38.824Z,90.83
2019-01-24T21:07:28.539Z,108.07
2019-01-24T21:10:22.941Z,168.57
2019-01-24T21:13:12.851Z,184.50
2019-01-24T21:16:02.688Z,165.27
2019-01-24T21:18:52.400Z,161.33
2019-01-24T21:21:42.274Z,154.37
2019-01-24T21:24:31.692Z,200.33
2019-01-24T21:27:21.248Z,201.07
2019-01-24T21:30:21.839Z,167.30
2019-01-24T21:33:11.490Z,157.17
2019-01-24T21:36:00.998Z,199.50
2019-01-24T21:38:53.032Z,211.97
2019-01-24T21:41:44.164Z,199.97
2019-01-24T21:44:33.065Z,98.57
2019-01-24T21:47:22.486Z,62.70
2019-01-24T21:50:14.721Z,54.73
2019-01-24T21:53:05.023Z,52.80
2019-01-24T21:55:55.326Z,52.00
2019-01-24T21:58:45.465Z,55.00
2019-01-24T22:01:38.551Z,58.37
2019-01-24T22:04:28.017Z,64.83
2019-01-24T22:07:17.375Z,66.70
2019-01-24T22:10:10.649Z,77.03
2019-01-24T22:13:01.135Z,70.10
2019-01-24T22:15:53.509Z,79.27
2019-01-24T22:18:43.380Z,131.40
2019-01-24T22:21:33.010Z,175.67
2019-01-24T22:24:24.154Z,198.60
2019-01-24T22:27:13.217Z,177.60
2019-01-24T22:30:02.610Z,158.87
2019-01-24T22:32:52.563Z,145.63
2019-01-24T22:35:42.367Z,133.27
2019-01-24T22:38:31.708Z,105.10
2019-01-24T22:41:22.205Z,95.17
2019-01-24T22:44:11.950Z,104.63
2019-01-24T22:47:01.655Z,105.20
2019-01-24T22:49:54.124Z,109.80
2019-01-24T22:52:43.877Z,107.70
2019-01-24T22:55:33.368Z,112.53
2019-01-24T22:58:23.656Z,110.40
2019-01-24T23:01:48.887Z,115.27
2019-01-24T23:04:38.341Z,100.20
2019-01-24T23:07:27.877Z,118.60
2019-01-24T23:10:17.079Z,129.80
2019-01-24T23:13:08.041Z,118.53
2019-01-24T23:16:02.231Z,116.53
2019-01-24T23:18:52.845Z,117.57
2019-01-24T23:21:44.783Z,118.47
2019-01-24T23:24:35.766Z,124.17
2019-01-24T23:27:25.610Z,113.40
2019-01-24T23:30:15.444Z,94.13
2019-01-24T23:33:05.072Z,90.50
2019-01-24T23:35:53.791Z,130.87
2019-01-24T23:38:43.213Z,153.20
2019-01-24T23:41:33.935Z,176.30
2019-01-24T23:44:23.892Z,162.73
2019-01-24T23:47:13.343Z,165.93
2019-01-24T23:50:02.626Z,152.10
2019-01-24T23:52:52.381Z,139.00
2019-01-24T23:55:42.609Z,140.63
2019-01-24T23:59:02.557Z,133.53
